createdAt,value
2018-01-21T00:01:32.576Z,6.60
2018-01-21T00:07:05.842Z,7.87
2018-01-21T00:09:34.189Z,6.78
2018-01-21T00:12:02.555Z,7.40
2018-01-21T00:14:32.092Z,6.82
2018-01-21T00:17:00.454Z,6.43
2018-01-21T00:19:28.877Z,6.30
2018-01-21T00:21:57.923Z,5.75
2018-01-21T00:24:26.313Z,5.78
2018-01-21T00:26:54.710Z,5.60
2018-01-21T00:29:24.466Z,6.30
2018-01-21T00:31:53.623Z,5.60
2018-01-21T00:34:23.055Z,5.32
2018-01-21T00:36:52.260Z,5.95
2018-01-21T00:39:20.636Z,5.60
2018-01-21T00:41:49.208Z,5.97
2018-01-21T00:44:17.565Z,5.75
2018-01-21T00:46:45.928Z,6.25
2018-01-21T00:49:22.687Z,8.40
2018-01-21T00:51:59.746Z,5.45
2018-01-21T00:54:28.113Z,6.28
2018-01-21T00:56:57.525Z,6.50
2018-01-21T00:59:25.924Z,5.37
2018-01-21T01:01:54.257Z,5.40
2018-01-21T01:04:23.968Z,7.03
2018-01-21T01:06:52.318Z,5.53
2018-01-21T01:09:20.690Z,5.55
2018-01-21T01:11:56.674Z,5.50
2018-01-21T01:14:25.094Z,5.80
2018-01-21T01:16:53.450Z,4.62
2018-01-21T01:19:21.892Z,4.30
2018-01-21T01:21:50.299Z,4.75
2018-01-21T01:24:19.562Z,4.37
2018-01-21T01:26:55.050Z,4.12
2018-01-21T01:29:24.809Z,4.18
2018-01-21T01:31:53.157Z,4.30
2018-01-21T01:34:22.314Z,4.93
2018-01-21T01:36:51.014Z,4.28
2018-01-21T01:39:19.401Z,4.43
2018-01-21T01:41:47.782Z,5.30
2018-01-21T01:44:16.821Z,4.68
2018-01-21T01:46:45.967Z,4.70
2018-01-21T01:49:14.360Z,5.10
2018-01-21T01:51:42.846Z,5.30
2018-01-21T01:54:11.207Z,4.75
2018-01-21T01:56:39.586Z,5.47
2018-01-21T01:59:08.016Z,5.28
2018-01-21T02:01:36.410Z,5.18
2018-01-21T02:04:05.530Z,4.87
2018-01-21T02:06:33.971Z,4.35
2018-01-21T02:09:02.332Z,4.87
2018-01-21T02:11:30.707Z,4.72
2018-01-21T02:13:59.167Z,4.50
2018-01-21T02:16:27.539Z,4.60
2018-01-21T02:18:56.682Z,4.55
2018-01-21T02:21:25.114Z,4.72
2018-01-21T02:23:53.529Z,5.53
2018-01-21T02:26:22.128Z,5.32
2018-01-21T02:28:50.569Z,5.35
2018-01-21T02:31:18.922Z,4.93
2018-01-21T02:33:47.340Z,5.15
2018-01-21T02:36:16.478Z,5.50
2018-01-21T02:38:44.864Z,5.47
2018-01-21T02:41:14.169Z,5.35
2018-01-21T02:43:42.546Z,4.78
2018-01-21T02:46:11.501Z,4.68
2018-01-21T02:48:41.016Z,5.10
2018-01-21T02:51:10.193Z,6.20
2018-01-21T02:53:38.562Z,4.87
2018-01-21T02:56:06.975Z,5.57
2018-01-21T02:58:36.846Z,4.70
2018-01-21T03:01:05.240Z,5.82
2018-01-21T03:03:33.716Z,5.22
2018-01-21T03:06:02.071Z,4.85
2018-01-21T03:08:31.203Z,4.87
2018-01-21T03:10:59.751Z,4.37
2018-01-21T03:13:28.883Z,4.47
2018-01-21T03:15:57.244Z,4.60
2018-01-21T03:18:26.776Z,4.47
2018-01-21T03:20:55.152Z,5.00
2018-01-21T03:23:23.503Z,4.80
2018-01-21T03:25:51.916Z,4.37
2018-01-21T03:28:20.376Z,3.95
2018-01-21T03:30:49.498Z,4.60
2018-01-21T03:33:17.908Z,4.37
2018-01-21T03:35:46.281Z,3.95
2018-01-21T03:38:14.674Z,3.95
2018-01-21T03:40:43.128Z,3.95
2018-01-21T03:43:12.245Z,4.00
2018-01-21T03:45:40.659Z,4.10
2018-01-21T03:48:09.374Z,3.80
2018-01-21T03:50:38.550Z,3.80
2018-01-21T03:53:06.950Z,4.15
2018-01-21T03:55:35.378Z,3.95
2018-01-21T03:58:03.785Z,4.97
2018-01-21T04:00:32.143Z,4.55
2018-01-21T04:03:01.384Z,5.00
2018-01-21T04:05:29.752Z,5.70
2018-01-21T04:07:58.117Z,5.45
2018-01-21T04:10:26.584Z,5.20
2018-01-21T04:12:55.703Z,4.78
2018-01-21T04:15:24.062Z,4.22
2018-01-21T04:17:53.259Z,4.37
2018-01-21T04:20:22.405Z,3.50
2018-01-21T04:22:50.779Z,4.15
2018-01-21T04:25:19.207Z,4.07
2018-01-21T04:27:47.597Z,4.05
2018-01-21T04:30:16.393Z,3.58
2018-01-21T04:32:45.641Z,4.20
2018-01-21T04:35:14.043Z,3.92
2018-01-21T04:37:42.430Z,3.92
2018-01-21T04:40:11.836Z,4.00
2018-01-21T04:42:40.208Z,3.62
2018-01-21T04:45:09.406Z,4.05
2018-01-21T04:47:37.763Z,4.25
2018-01-21T04:50:06.897Z,4.50
2018-01-21T04:52:35.512Z,4.18
2018-01-21T04:55:03.886Z,4.37
2018-01-21T04:57:32.321Z,3.80
2018-01-21T05:00:00.765Z,3.35
2018-01-21T05:02:29.987Z,3.30
2018-01-21T05:04:58.335Z,4.40
2018-01-21T05:07:26.919Z,4.15
2018-01-21T05:09:55.293Z,3.42
2018-01-21T05:12:24.416Z,3.60
2018-01-21T05:14:52.902Z,3.55
2018-01-21T05:17:22.028Z,3.55
2018-01-21T05:19:51.193Z,3.33
2018-01-21T05:22:19.608Z,4.10
2018-01-21T05:24:47.977Z,4.12
2018-01-21T05:27:16.359Z,4.20
2018-01-21T05:29:44.791Z,4.40
2018-01-21T05:32:13.439Z,4.20
2018-01-21T05:34:41.765Z,5.20
2018-01-21T05:37:10.443Z,4.62
2018-01-21T05:39:38.828Z,4.78
2018-01-21T05:42:07.987Z,4.30
2018-01-21T05:44:36.448Z,4.50
2018-01-21T05:47:04.828Z,5.03
2018-01-21T05:49:33.196Z,3.65
2018-01-21T05:52:01.644Z,4.45
2018-01-21T05:54:30.091Z,4.97
2018-01-21T05:56:58.458Z,5.12
2018-01-21T05:59:26.891Z,5.07
2018-01-21T06:01:55.286Z,5.07
2018-01-21T06:04:24.448Z,4.97
2018-01-21T06:06:53.027Z,4.47
2018-01-21T06:09:21.400Z,4.50
2018-01-21T06:11:49.768Z,4.60
2018-01-21T06:14:18.479Z,4.93
2018-01-21T06:16:46.850Z,4.90
2018-01-21T06:19:15.228Z,5.50
2018-01-21T06:21:44.481Z,5.40
2018-01-21T06:24:12.940Z,5.85
2018-01-21T06:26:41.287Z,6.00
2018-01-21T06:29:10.488Z,6.78
2018-01-21T06:31:39.613Z,6.50
2018-01-21T06:34:08.233Z,6.45
2018-01-21T06:36:36.683Z,5.90
2018-01-21T06:39:05.078Z,6.57
2018-01-21T06:41:33.428Z,7.60
2018-01-21T06:44:02.664Z,7.87
2018-01-21T06:46:31.053Z,7.40
2018-01-21T06:48:59.438Z,6.15
2018-01-21T06:51:27.884Z,6.40
2018-01-21T06:53:56.230Z,8.50
2018-01-21T06:56:24.559Z,7.85
2018-01-21T06:58:53.087Z,7.43
2018-01-21T07:01:21.443Z,7.32
2018-01-21T07:03:49.824Z,8.13
2018-01-21T07:06:18.267Z,7.80
2018-01-21T07:08:46.655Z,7.28
2018-01-21T07:11:15.851Z,7.75
2018-01-21T07:13:44.321Z,8.13
2018-01-21T07:16:12.707Z,6.93
2018-01-21T07:18:41.857Z,7.70
2018-01-21T07:21:10.608Z,6.35
2018-01-21T07:23:39.748Z,8.52
2018-01-21T07:26:08.133Z,8.82
2018-01-21T07:28:36.693Z,8.63
2018-01-21T07:31:05.079Z,7.95
2018-01-21T07:33:34.215Z,6.68
2018-01-21T07:36:03.083Z,8.65
2018-01-21T07:38:32.209Z,8.00
2018-01-21T07:41:01.611Z,8.25
2018-01-21T07:43:30.228Z,7.10
2018-01-21T07:45:58.563Z,7.45
2018-01-21T07:48:27.745Z,7.65
2018-01-21T07:50:56.512Z,7.35
2018-01-21T07:53:24.884Z,8.45
2018-01-21T07:55:53.254Z,7.78
2018-01-21T07:58:22.341Z,9.13
2018-01-21T08:00:50.710Z,7.53
2018-01-21T08:03:19.142Z,9.00
2018-01-21T08:05:47.606Z,8.60
2018-01-21T08:08:16.028Z,8.68
2018-01-21T08:10:44.365Z,8.32
2018-01-21T08:13:13.080Z,8.35
2018-01-21T08:15:41.445Z,7.20
2018-01-21T08:18:09.809Z,9.10
2018-01-21T08:20:38.257Z,7.90
2018-01-21T08:23:06.640Z,8.55
2018-01-21T08:25:35.011Z,9.25
2018-01-21T08:28:03.824Z,8.63
2018-01-21T08:30:32.995Z,8.50
2018-01-21T08:33:01.422Z,8.65
2018-01-21T08:35:35.643Z,9.02
2018-01-21T08:38:10.965Z,8.63
2018-01-21T08:40:45.718Z,8.80
2018-01-21T08:43:14.896Z,8.75
2018-01-21T08:45:44.068Z,8.60
2018-01-21T08:48:12.894Z,8.25
2018-01-21T08:50:42.049Z,9.30
2018-01-21T08:53:10.493Z,10.98
2018-01-21T08:55:40.030Z,9.55
2018-01-21T08:58:08.441Z,9.02
2018-01-21T09:00:36.889Z,10.15
2018-01-21T09:03:05.266Z,10.20
2018-01-21T09:05:33.802Z,9.55
2018-01-21T09:08:02.195Z,9.80
2018-01-21T09:10:30.609Z,10.90
2018-01-21T09:13:00.300Z,9.90
2018-01-21T09:15:28.690Z,9.73
2018-01-21T09:17:57.045Z,8.55
2018-01-21T09:20:25.574Z,8.85
2018-01-21T09:22:54.719Z,9.85
2018-01-21T09:25:23.090Z,10.20
2018-01-21T09:27:51.553Z,8.68
2018-01-21T09:30:19.963Z,9.23
2018-01-21T09:32:48.385Z,8.93
2018-01-21T09:35:17.173Z,8.15
2018-01-21T09:37:45.547Z,8.15
2018-01-21T09:40:14.709Z,7.15
2018-01-21T09:42:43.563Z,8.77
2018-01-21T09:45:11.946Z,8.02
2018-01-21T09:47:40.397Z,7.70
2018-01-21T09:50:08.770Z,8.00
2018-01-21T09:52:37.139Z,8.07
2018-01-21T09:55:06.547Z,7.20
2018-01-21T09:57:34.973Z,8.98
2018-01-21T10:00:03.358Z,7.60
2018-01-21T10:02:31.742Z,7.82
2018-01-21T10:05:00.463Z,8.65
2018-01-21T10:07:29.625Z,6.78
2018-01-21T10:09:58.001Z,6.70
2018-01-21T10:12:26.801Z,7.12
2018-01-21T10:14:55.156Z,6.95
2018-01-21T10:17:23.540Z,6.70
2018-01-21T10:19:51.984Z,7.80
2018-01-21T10:22:20.383Z,7.72
2018-01-21T10:24:49.536Z,7.25
2018-01-21T10:27:18.020Z,9.27
2018-01-21T10:29:46.414Z,7.10
2018-01-21T10:32:14.777Z,7.32
2018-01-21T10:34:43.564Z,6.50
2018-01-21T10:37:11.910Z,6.35
2018-01-21T10:39:41.036Z,6.45
2018-01-21T10:42:09.578Z,8.70
2018-01-21T10:44:38.610Z,6.32
2018-01-21T10:47:07.042Z,6.70
2018-01-21T10:49:35.417Z,6.00
2018-01-21T10:52:03.807Z,7.60
2018-01-21T10:54:32.561Z,6.30
2018-01-21T10:57:01.094Z,6.60
2018-01-21T10:59:29.460Z,5.30
2018-01-21T11:01:57.979Z,5.35
2018-01-21T11:04:26.768Z,5.35
2018-01-21T11:06:55.912Z,5.07
2018-01-21T11:09:24.415Z,6.82
2018-01-21T11:11:52.797Z,5.25
2018-01-21T11:14:21.161Z,6.22
2018-01-21T11:16:50.096Z,8.93
2018-01-21T11:19:18.464Z,6.62
2018-01-21T11:21:50.432Z,6.68
2018-01-21T11:24:18.839Z,8.15
2018-01-21T11:26:48.196Z,5.62
2018-01-21T11:29:17.438Z,5.35
2018-01-21T11:31:45.819Z,6.40
2018-01-21T11:34:14.198Z,5.70
2018-01-21T11:36:44.642Z,5.12
2018-01-21T11:39:13.052Z,5.87
2018-01-21T11:41:41.424Z,4.85
2018-01-21T11:44:10.428Z,6.75
2018-01-21T11:46:39.554Z,5.50
2018-01-21T11:49:07.918Z,5.28
2018-01-21T11:51:37.118Z,5.72
2018-01-21T11:54:06.253Z,6.10
2018-01-21T11:56:34.617Z,5.55
2018-01-21T11:59:03.877Z,6.32
2018-01-21T12:01:32.472Z,5.45
2018-01-21T12:04:01.717Z,4.80
2018-01-21T12:06:30.534Z,4.57
2018-01-21T12:08:59.090Z,5.05
2018-01-21T12:11:28.228Z,4.80
2018-01-21T12:13:56.672Z,4.35
2018-01-21T12:16:25.805Z,4.95
2018-01-21T12:18:54.177Z,4.53
2018-01-21T12:21:23.439Z,4.43
2018-01-21T12:23:51.819Z,5.03
2018-01-21T12:26:20.235Z,3.97
2018-01-21T12:28:48.716Z,4.65
2018-01-21T12:31:17.879Z,4.20
2018-01-21T12:33:46.316Z,4.53
2018-01-21T12:36:15.080Z,4.70
2018-01-21T12:38:43.502Z,4.40
2018-01-21T12:41:11.895Z,4.78
2018-01-21T12:43:40.419Z,4.35
2018-01-21T12:46:08.976Z,5.00
2018-01-21T12:48:37.329Z,5.87
2018-01-21T12:51:06.470Z,9.15
2018-01-21T12:53:34.849Z,4.53
2018-01-21T12:56:03.330Z,4.22
2018-01-21T12:58:31.725Z,4.23
2018-01-21T13:01:00.140Z,4.40
2018-01-21T13:03:28.569Z,3.95
2018-01-21T13:05:57.394Z,4.68
2018-01-21T13:08:25.787Z,5.35
2018-01-21T13:10:54.185Z,4.45
2018-01-21T13:13:22.719Z,4.40
2018-01-21T13:15:52.357Z,4.62
2018-01-21T13:18:20.742Z,4.55
2018-01-21T13:20:49.221Z,4.20
2018-01-21T13:23:17.590Z,4.53
2018-01-21T13:25:46.030Z,5.57
2018-01-21T13:28:15.953Z,3.78
2018-01-21T13:30:45.350Z,3.35
2018-01-21T13:33:13.725Z,4.10
2018-01-21T13:35:42.369Z,4.32
2018-01-21T13:38:10.878Z,3.97
2018-01-21T13:40:39.495Z,11.10
2018-01-21T13:43:07.997Z,4.37
2018-01-21T13:45:37.362Z,4.55
2018-01-21T13:48:06.344Z,4.28
2018-01-21T13:50:35.810Z,4.35
2018-01-21T13:53:04.949Z,4.10
2018-01-21T13:55:33.398Z,5.00
2018-01-21T13:58:02.634Z,5.60
2018-01-21T14:00:31.916Z,3.97
2018-01-21T14:03:01.222Z,4.30
2018-01-21T14:05:30.443Z,3.92
2018-01-21T14:07:58.804Z,4.25
2018-01-21T14:10:27.269Z,4.18
2018-01-21T14:12:57.915Z,6.55
2018-01-21T14:15:26.324Z,4.53
2018-01-21T14:17:55.072Z,4.75
2018-01-21T14:20:23.478Z,4.70
2018-01-21T14:22:52.648Z,7.60
2018-01-21T14:25:21.829Z,5.80
2018-01-21T14:27:50.638Z,5.18
2018-01-21T14:30:19.012Z,6.35
2018-01-21T14:32:48.248Z,6.80
2018-01-21T14:35:16.744Z,6.85
2018-01-21T14:37:45.132Z,4.93
2018-01-21T14:40:13.609Z,5.00
2018-01-21T14:42:42.079Z,11.85
2018-01-21T14:45:11.220Z,5.25
2018-01-21T14:47:39.612Z,5.18
2018-01-21T14:50:10.089Z,5.80
2018-01-21T14:52:38.483Z,4.43
2018-01-21T14:55:06.856Z,5.60
2018-01-21T14:57:35.620Z,6.15
2018-01-21T15:00:04.030Z,7.22
2018-01-21T15:02:32.464Z,5.28
2018-01-21T15:05:01.062Z,5.68
2018-01-21T15:07:29.437Z,6.93
2018-01-21T15:09:57.821Z,4.30
2018-01-21T15:12:26.305Z,3.80
2018-01-21T15:14:54.701Z,6.35
2018-01-21T15:17:23.146Z,4.70
2018-01-21T15:19:51.534Z,5.07
2018-01-21T15:22:20.008Z,5.28
2018-01-21T15:24:48.483Z,8.00
2018-01-21T15:27:16.865Z,4.43
2018-01-21T15:29:45.898Z,6.60
2018-01-21T15:32:15.595Z,5.87
2018-01-21T15:34:44.818Z,5.10
2018-01-21T15:37:13.641Z,8.15
2018-01-21T15:39:42.036Z,6.55
2018-01-21T15:42:10.471Z,8.50
2018-01-21T15:44:39.362Z,8.10
2018-01-21T15:47:07.772Z,13.80
2018-01-21T15:49:36.166Z,10.15
2018-01-21T15:52:04.885Z,10.70
2018-01-21T15:54:34.205Z,8.05
2018-01-21T15:57:03.361Z,7.00
2018-01-21T15:59:32.106Z,11.60
2018-01-21T16:02:01.248Z,12.27
2018-01-21T16:04:30.452Z,8.00
2018-01-21T16:06:59.241Z,8.82
2018-01-21T16:09:28.488Z,9.80
2018-01-21T16:11:57.018Z,12.02
2018-01-21T16:14:25.591Z,9.65
2018-01-21T16:16:54.007Z,9.38
2018-01-21T16:19:22.409Z,11.93
2018-01-21T16:21:50.884Z,6.95
2018-01-21T16:24:19.276Z,8.00
2018-01-21T16:26:47.627Z,11.73
2018-01-21T16:29:17.194Z,8.95
2018-01-21T16:31:45.581Z,13.55
2018-01-21T16:34:14.760Z,12.40
2018-01-21T16:36:44.038Z,9.90
2018-01-21T16:39:12.628Z,8.93
2018-01-21T16:41:41.088Z,10.68
2018-01-21T16:44:09.648Z,13.55
2018-01-21T16:46:38.867Z,11.27
2018-01-21T16:49:07.836Z,10.70
2018-01-21T16:51:36.518Z,10.32
2018-01-21T16:54:05.106Z,11.82
2018-01-21T16:56:33.638Z,10.73
2018-01-21T16:59:02.726Z,10.30
2018-01-21T17:01:31.278Z,14.20
2018-01-21T17:04:00.576Z,10.43
2018-01-21T17:06:29.563Z,11.12
2018-01-21T17:08:58.907Z,11.38
2018-01-21T17:11:28.145Z,17.70
2018-01-21T17:13:57.488Z,12.35
2018-01-21T17:16:25.948Z,15.77
2018-01-21T17:18:54.572Z,17.45
2018-01-21T17:21:26.450Z,20.30
2018-01-21T17:23:54.906Z,14.40
2018-01-21T17:26:24.777Z,14.73
2018-01-21T17:28:56.760Z,12.98
2018-01-21T17:31:25.282Z,11.18
2018-01-21T17:33:53.875Z,10.10
2018-01-21T17:36:22.607Z,11.12
2018-01-21T17:38:52.021Z,16.45
2018-01-21T17:41:21.271Z,14.30
2018-01-21T17:43:50.582Z,18.08
2018-01-21T17:46:18.968Z,23.20
2018-01-21T17:48:47.344Z,23.25
2018-01-21T17:51:15.974Z,23.15
2018-01-21T17:53:45.163Z,29.48
2018-01-21T17:56:14.477Z,19.75
2018-01-21T17:58:44.011Z,19.45
2018-01-21T18:01:13.368Z,16.40
2018-01-21T18:03:42.537Z,15.35
2018-01-21T18:06:11.080Z,16.10
2018-01-21T18:08:39.429Z,21.98
2018-01-21T18:11:07.790Z,15.63
2018-01-21T18:13:36.298Z,14.75
2018-01-21T18:16:05.489Z,19.12
2018-01-21T18:18:33.963Z,12.77
2018-01-21T18:21:02.787Z,16.25
2018-01-21T18:23:31.169Z,12.43
2018-01-21T18:25:59.575Z,13.85
2018-01-21T18:28:29.012Z,12.32
2018-01-21T18:30:59.009Z,13.65
2018-01-21T18:33:27.677Z,18.02
2018-01-21T18:35:56.437Z,14.80
2018-01-21T18:38:24.934Z,14.48
2018-01-21T18:40:54.111Z,14.65
2018-01-21T18:43:22.621Z,14.50
2018-01-21T18:45:51.018Z,20.88
2018-01-21T18:48:20.209Z,13.65
2018-01-21T18:50:49.152Z,11.52
2018-01-21T18:53:18.325Z,12.77
2018-01-21T18:55:46.745Z,12.30
2018-01-21T18:58:15.783Z,11.20
2018-01-21T19:00:44.217Z,16.27
2018-01-21T19:03:13.452Z,18.02
2018-01-21T19:05:42.896Z,15.13
2018-01-21T19:08:12.071Z,16.75
2018-01-21T19:10:40.553Z,13.23
2018-01-21T19:13:09.183Z,13.35
2018-01-21T19:15:38.138Z,19.48
2018-01-21T19:18:07.395Z,18.25
2018-01-21T19:20:36.873Z,19.87
2018-01-21T19:23:06.116Z,18.60
2018-01-21T19:25:35.600Z,17.10
2018-01-21T19:28:04.152Z,16.98
2018-01-21T19:30:32.534Z,15.73
2018-01-21T19:33:00.946Z,16.05
2018-01-21T19:35:29.551Z,16.40
2018-01-21T19:37:59.678Z,16.85
2018-01-21T19:40:28.267Z,16.90
2018-01-21T19:43:09.108Z,16.80
2018-01-21T19:45:37.535Z,19.20
2018-01-21T19:48:06.005Z,18.23
2018-01-21T19:50:35.881Z,19.37
2018-01-21T19:53:04.710Z,18.52
2018-01-21T19:55:33.703Z,23.33
2018-01-21T19:58:02.470Z,19.12
2018-01-21T20:00:31.654Z,22.00
2018-01-21T20:03:01.585Z,24.33
2018-01-21T20:05:31.661Z,20.62
2018-01-21T20:08:00.976Z,16.35
2018-01-21T20:10:30.906Z,18.87
2018-01-21T20:13:00.143Z,20.42
2018-01-21T20:15:29.051Z,21.87
2018-01-21T20:17:57.807Z,16.23
2018-01-21T20:20:26.279Z,16.17
2018-01-21T20:22:55.569Z,20.25
2018-01-21T20:25:24.597Z,20.50
2018-01-21T20:27:53.104Z,16.77
2018-01-21T20:30:21.493Z,16.58
2018-01-21T20:32:56.118Z,15.45
2018-01-21T20:35:25.509Z,17.80
2018-01-21T20:37:54.183Z,17.50
2018-01-21T20:40:22.761Z,17.42
2018-01-21T20:42:51.250Z,16.95
2018-01-21T20:45:19.862Z,16.77
2018-01-21T20:47:50.277Z,26.05
2018-01-21T20:50:19.421Z,15.80
2018-01-21T20:52:50.529Z,15.40
2018-01-21T20:55:18.919Z,18.00
2018-01-21T20:57:47.317Z,17.05
2018-01-21T21:00:15.989Z,19.40
2018-01-21T21:02:46.863Z,17.15
2018-01-21T21:05:15.401Z,23.23
2018-01-21T21:07:44.181Z,18.95
2018-01-21T21:10:14.012Z,24.33
2018-01-21T21:12:43.299Z,18.10
2018-01-21T21:15:12.876Z,18.45
2018-01-21T21:17:42.417Z,19.17
2018-01-21T21:20:13.300Z,18.45
2018-01-21T21:22:42.512Z,20.37
2018-01-21T21:25:11.732Z,18.33
2018-01-21T21:27:40.583Z,16.67
2018-01-21T21:30:10.068Z,13.73
2018-01-21T21:32:38.589Z,13.93
2018-01-21T21:35:07.134Z,16.20
2018-01-21T21:37:35.519Z,18.98
2018-01-21T21:40:04.672Z,19.25
2018-01-21T21:42:33.441Z,19.00
2018-01-21T21:45:01.836Z,18.48
2018-01-21T21:47:30.223Z,14.85
2018-01-21T21:49:58.784Z,16.23
2018-01-21T21:52:27.937Z,15.55
2018-01-21T21:54:56.329Z,19.23
2018-01-21T21:57:25.207Z,19.40
2018-01-21T21:59:53.698Z,17.37
2018-01-21T22:02:22.108Z,19.90
2018-01-21T22:04:52.100Z,15.75
2018-01-21T22:07:20.526Z,18.70
2018-01-21T22:09:49.153Z,20.10
2018-01-21T22:12:18.162Z,17.17
2018-01-21T22:14:47.522Z,12.65
2018-01-21T22:17:16.685Z,14.75
2018-01-21T22:19:46.762Z,12.75
2018-01-21T22:22:16.120Z,14.95
2018-01-21T22:24:45.717Z,14.68
2018-01-21T22:27:14.547Z,13.62
2018-01-21T22:29:44.955Z,14.15
2018-01-21T22:32:13.520Z,14.38
2018-01-21T22:34:42.970Z,15.43
2018-01-21T22:37:12.655Z,16.67
2018-01-21T22:39:41.334Z,15.77
2018-01-21T22:42:10.089Z,15.02
2018-01-21T22:44:39.538Z,15.05
2018-01-21T22:47:08.102Z,14.48
2018-01-21T22:49:36.776Z,17.48
2018-01-21T22:52:05.379Z,17.55
2018-01-21T22:54:35.664Z,16.95
2018-01-21T22:57:04.295Z,15.13
2018-01-21T22:59:33.033Z,15.52
2018-01-21T23:02:01.589Z,15.50
2018-01-21T23:04:31.709Z,15.10
2018-01-21T23:07:00.264Z,15.85
2018-01-21T23:09:28.791Z,14.25
2018-01-21T23:11:58.584Z,14.07
2018-01-21T23:14:28.841Z,14.65
2018-01-21T23:17:01.119Z,15.43
2018-01-21T23:19:30.267Z,13.65
2018-01-21T23:21:59.539Z,15.50
2018-01-21T23:24:27.910Z,14.63
2018-01-21T23:26:56.443Z,13.75
2018-01-21T23:29:25.611Z,12.75
2018-01-21T23:31:54.774Z,14.27
2018-01-21T23:34:23.779Z,12.98
2018-01-21T23:36:52.169Z,12.55
2018-01-21T23:39:20.538Z,14.18
2018-01-21T23:41:49.786Z,8.75
2018-01-21T23:44:18.937Z,10.32
2018-01-21T23:46:47.421Z,6.97
2018-01-21T23:49:16.235Z,7.28
2018-01-21T23:51:44.630Z,5.55
2018-01-21T23:54:13.002Z,6.07
2018-01-21T23:56:41.492Z,4.78
2018-01-21T23:59:09.859Z,3.92
